Startpagina
METAR-TAF:

METAR-TAF

Vliegvelden :

Guilin, China

breedte: 25-20N, lengte: 110-18E, hoogte: 166 m

Actueel weer

Dit bericht is 1 uur en het 1 minuten geleden gemaakt, om 18:00 UTC
Wind 4 kt uit variabele richting
Temperatuur 23°C
Vochtigheid 83%
Druk 1008 hPa
Zicht: 8000 m
Weinig wolken op 2600 ft
Geheel bewolkt op 6600 ft

METAR: ZGKL 221800Z VRB02MPS 8000 FEW026 OVC066 23/20 Q1008 NOSIG

Tijdstip: 03:01 (19:01 UTC)

Verwachting

Dit bericht is 3 uur en het 50 minuten geleden gemaakt, om 15:11 UTC
Verwachting geldig van 22 om 18 UTC tot 23 om 18 UTC
Wind 4 kt uit het zuiden
Zicht: 8000 m
Verspreide wolken op 2600 ft
Geheel bewolkt op 5000 ft

TAF: ZGKL 221511Z 2218/2318 18002MPS 8000 SCT026 OVC050 TX30/2308Z TN22/2222Z

Waarnemingen en weersverwachtingen van meer dan 4000 vliegvelden (METAR en TAF).

De beschikbare stations zijn de gele en rode punten op de kaart.

Ga met uw muis naar het station om de naam te zien.

Klik dan om waarnemingen en weersverwachtingen te zien.

kaart wijzigen: klik op de groene knoppen met een zwart kruis om in te zoomen, op de groene knop met een streepje om uit te zoomen of op de groene pijlen voor aangrenzende kaarten.


METAR-TAF: